createdAt,value
2022-11-29T00:02:01.684Z,9.02
2022-11-29T00:07:03.287Z,9.01
2022-11-29T00:12:13.977Z,9.02
2022-11-29T00:17:15.478Z,9.03
2022-11-29T00:22:17.049Z,9.02
2022-11-29T00:27:18.510Z,9.04
2022-11-29T00:32:19.937Z,9.09
2022-11-29T00:37:21.388Z,9.09
2022-11-29T00:42:23.024Z,9.09
2022-11-29T00:47:24.516Z,9.11
2022-11-29T00:52:25.991Z,9.09
2022-11-29T00:57:27.473Z,9.08
2022-11-29T01:02:28.951Z,9.09
2022-11-29T01:07:30.442Z,9.03
2022-11-29T01:12:35.768Z,8.99
2022-11-29T01:17:39.151Z,9.01
2022-11-29T01:22:41.057Z,9.00
2022-11-29T01:27:42.547Z,8.99
2022-11-29T01:32:44.022Z,9.01
2022-11-29T01:37:45.499Z,9.01
2022-11-29T01:42:47.004Z,9.03
2022-11-29T01:47:52.031Z,9.05
2022-11-29T01:52:53.589Z,9.04
2022-11-29T01:57:54.998Z,9.02
2022-11-29T02:03:01.699Z,9.02
2022-11-29T02:08:03.259Z,9.06
2022-11-29T02:13:23.824Z,9.06
2022-11-29T02:18:43.699Z,9.07
2022-11-29T02:24:00.819Z,9.02
2022-11-29T02:29:11.952Z,9.05
2022-11-29T02:34:42.821Z,9.05
2022-11-29T02:39:56.652Z,8.98
2022-11-29T02:45:14.485Z,8.97
2022-11-29T02:50:39.365Z,8.95
2022-11-29T02:55:52.526Z,8.97
2022-11-29T03:01:09.955Z,8.99
2022-11-29T03:06:11.354Z,8.93
2022-11-29T03:11:27.721Z,8.85
2022-11-29T03:17:12.916Z,8.86
2022-11-29T03:22:32.662Z,8.80
2022-11-29T03:27:46.295Z,8.81
2022-11-29T03:32:55.793Z,8.78
2022-11-29T03:38:14.879Z,8.72
2022-11-29T03:43:23.661Z,8.63
2022-11-29T03:48:25.097Z,8.58
2022-11-29T03:53:50.726Z,8.58
2022-11-29T03:58:57.440Z,8.66
2022-11-29T04:04:10.990Z,8.72
2022-11-29T04:09:21.678Z,8.65
2022-11-29T04:14:41.461Z,8.60
2022-11-29T04:19:57.983Z,8.66
2022-11-29T04:25:28.494Z,8.66
2022-11-29T04:30:44.499Z,8.61
2022-11-29T04:35:51.989Z,8.56
2022-11-29T04:41:11.079Z,8.55
2022-11-29T04:46:27.947Z,8.58
2022-11-29T04:52:04.923Z,8.51
2022-11-29T04:57:25.415Z,8.47
2022-11-29T05:02:56.019Z,8.52
2022-11-29T05:08:12.842Z,8.46
2022-11-29T05:13:31.359Z,8.42
2022-11-29T05:18:54.171Z,8.42
2022-11-29T05:24:11.044Z,8.47
2022-11-29T05:29:32.755Z,8.54
2022-11-29T05:35:09.879Z,8.55
2022-11-29T05:40:38.788Z,8.54
2022-11-29T05:45:52.530Z,8.53
2022-11-29T05:51:09.163Z,8.57
2022-11-29T05:56:29.392Z,8.55
2022-11-29T06:01:58.835Z,8.51
2022-11-29T06:07:12.041Z,8.55
2022-11-29T06:12:21.079Z,8.55
2022-11-29T06:17:42.166Z,8.62
2022-11-29T06:22:50.465Z,8.67
2022-11-29T06:28:10.496Z,8.67
2022-11-29T06:33:22.935Z,8.72
2022-11-29T06:38:30.140Z,8.74
2022-11-29T06:43:31.966Z,8.68
2022-11-29T06:48:45.720Z,8.61
2022-11-29T06:54:02.645Z,8.56
2022-11-29T06:59:25.827Z,8.60
2022-11-29T07:04:46.273Z,8.56
2022-11-29T07:09:52.140Z,8.49
2022-11-29T07:14:53.960Z,8.49
2022-11-29T07:20:31.121Z,8.49
2022-11-29T07:25:48.653Z,8.48
2022-11-29T07:31:09.175Z,8.50
2022-11-29T07:36:16.666Z,8.53
2022-11-29T07:41:29.876Z,8.57
2022-11-29T07:46:31.409Z,8.58
2022-11-29T07:51:32.987Z,8.64
2022-11-29T07:56:34.463Z,8.72
2022-11-29T08:01:36.041Z,8.80
2022-11-29T08:06:38.094Z,8.92
2022-11-29T08:11:40.016Z,8.96
2022-11-29T08:16:41.592Z,9.05
2022-11-29T08:21:46.944Z,9.11
2022-11-29T08:26:49.010Z,9.20
2022-11-29T08:31:53.579Z,9.28
2022-11-29T08:36:56.465Z,9.31
2022-11-29T08:41:58.036Z,9.31
2022-11-29T08:47:17.929Z,9.33
2022-11-29T08:52:37.861Z,9.35
2022-11-29T08:57:40.748Z,9.33
2022-11-29T09:02:42.914Z,9.30
2022-11-29T09:07:44.578Z,9.33
2022-11-29T09:12:46.369Z,9.35
2022-11-29T09:17:47.831Z,9.41
2022-11-29T09:22:49.437Z,9.46
2022-11-29T09:27:51.766Z,9.49
2022-11-29T09:32:53.206Z,9.51
2022-11-29T09:37:54.714Z,9.54
2022-11-29T09:43:19.162Z,9.57
2022-11-29T09:48:31.046Z,9.57
2022-11-29T09:53:44.705Z,9.55
2022-11-29T09:58:54.686Z,9.59
2022-11-29T10:04:05.661Z,9.61
2022-11-29T10:09:13.240Z,9.67
2022-11-29T10:14:22.498Z,9.72
2022-11-29T10:19:39.026Z,9.75
2022-11-29T10:24:44.955Z,9.83
2022-11-29T10:29:50.292Z,9.90
2022-11-29T10:34:52.286Z,9.90
2022-11-29T10:40:02.055Z,10.03
2022-11-29T10:45:05.404Z,10.10
2022-11-29T10:50:07.699Z,10.03
2022-11-29T10:55:14.465Z,9.91
2022-11-29T11:00:16.479Z,9.87
2022-11-29T11:05:26.523Z,9.86
2022-11-29T11:10:30.875Z,9.84
2022-11-29T11:15:33.066Z,9.82
2022-11-29T11:20:41.095Z,9.76
2022-11-29T11:25:42.596Z,9.76
2022-11-29T11:30:58.862Z,9.77
2022-11-29T11:36:22.218Z,9.83
2022-11-29T11:41:45.158Z,9.95
2022-11-29T11:46:50.508Z,10.00
2022-11-29T11:51:52.214Z,10.11
2022-11-29T11:56:53.760Z,10.15
2022-11-29T12:01:55.311Z,10.20
2022-11-29T12:07:00.508Z,10.27
2022-11-29T12:12:23.724Z,10.31
2022-11-29T12:17:38.328Z,10.32
2022-11-29T12:23:03.697Z,10.39
2022-11-29T12:28:19.848Z,10.41
2022-11-29T12:33:47.150Z,10.46
2022-11-29T12:39:11.194Z,10.55
2022-11-29T12:44:38.280Z,10.67
2022-11-29T12:50:13.325Z,10.79
2022-11-29T12:55:21.006Z,10.81
2022-11-29T13:00:23.206Z,10.80
2022-11-29T13:05:42.595Z,10.75
2022-11-29T13:11:09.313Z,10.63
2022-11-29T13:16:47.818Z,10.59
2022-11-29T13:22:11.225Z,10.57
2022-11-29T13:27:44.839Z,10.50
2022-11-29T13:33:14.358Z,10.35
2022-11-29T13:38:37.057Z,10.14
2022-11-29T13:43:49.146Z,10.07
2022-11-29T13:48:53.502Z,10.11
2022-11-29T13:53:56.665Z,10.15
2022-11-29T13:59:00.997Z,10.15
2022-11-29T14:04:06.855Z,10.19
2022-11-29T14:09:23.390Z,10.12
2022-11-29T14:14:31.464Z,10.16
2022-11-29T14:19:37.224Z,10.20
2022-11-29T14:24:40.103Z,10.07
2022-11-29T14:29:47.374Z,9.96
2022-11-29T14:34:57.958Z,9.99
2022-11-29T14:40:02.200Z,9.96
2022-11-29T14:45:20.951Z,9.91
2022-11-29T14:50:32.446Z,9.96
2022-11-29T14:55:36.990Z,9.99
2022-11-29T15:01:08.170Z,9.95
2022-11-29T15:06:23.262Z,9.98
2022-11-29T15:11:36.901Z,9.99
2022-11-29T15:16:59.677Z,10.03
2022-11-29T15:22:16.948Z,10.06
2022-11-29T15:27:18.881Z,10.06
2022-11-29T15:32:31.384Z,10.07
2022-11-29T15:37:36.588Z,10.01
2022-11-29T15:42:40.887Z,9.99
2022-11-29T15:47:42.387Z,9.97
2022-11-29T15:52:44.288Z,9.97
2022-11-29T15:57:51.007Z,9.97
2022-11-29T16:02:59.572Z,9.94
2022-11-29T16:08:04.864Z,9.89
2022-11-29T16:13:27.543Z,9.85
2022-11-29T16:18:28.991Z,9.78
2022-11-29T16:23:41.413Z,9.73
2022-11-29T16:28:45.587Z,9.70
2022-11-29T16:33:49.191Z,9.71
2022-11-29T16:38:58.200Z,9.66
2022-11-29T16:44:03.267Z,9.63
2022-11-29T16:49:31.908Z,9.59
2022-11-29T16:54:34.347Z,9.58
2022-11-29T16:59:38.647Z,9.57
2022-11-29T17:04:40.702Z,9.48
2022-11-29T17:09:42.684Z,9.48
2022-11-29T17:14:44.450Z,9.54
2022-11-29T17:19:46.191Z,9.59
2022-11-29T17:24:48.641Z,9.64
2022-11-29T17:29:50.235Z,9.59
2022-11-29T17:34:51.839Z,9.55
2022-11-29T17:39:53.306Z,9.54
2022-11-29T17:44:54.778Z,9.48
2022-11-29T17:49:56.293Z,9.43
2022-11-29T17:54:57.755Z,9.40
2022-11-29T17:59:59.261Z,9.36
2022-11-29T18:05:00.831Z,9.33
2022-11-29T18:10:02.410Z,9.35
2022-11-29T18:15:05.352Z,9.42
2022-11-29T18:20:07.545Z,9.42
2022-11-29T18:25:36.877Z,9.49
2022-11-29T18:30:30.868Z,9.53
2022-11-29T18:35:32.334Z,9.59
2022-11-29T18:40:33.812Z,9.59
2022-11-29T18:45:38.281Z,9.60
2022-11-29T18:50:39.840Z,9.62
2022-11-29T18:55:41.363Z,9.63
2022-11-29T19:00:43.282Z,9.62
2022-11-29T19:05:52.962Z,9.56
2022-11-29T19:10:54.491Z,9.50
2022-11-29T19:15:56.199Z,9.40
2022-11-29T19:21:05.354Z,9.29
2022-11-29T19:26:09.774Z,9.23
2022-11-29T19:31:13.249Z,9.17
2022-11-29T19:36:22.428Z,9.17
2022-11-29T19:41:26.937Z,9.15
2022-11-29T19:46:40.245Z,9.16
2022-11-29T19:51:41.877Z,9.17
2022-11-29T19:56:43.679Z,9.17
2022-11-29T20:01:45.328Z,9.16
2022-11-29T20:06:47.564Z,9.18
2022-11-29T20:11:49.024Z,9.24
2022-11-29T20:16:50.537Z,9.29
2022-11-29T20:21:52.096Z,9.32
2022-11-29T20:26:53.677Z,9.28
2022-11-29T20:31:55.253Z,9.24
2022-11-29T20:36:59.741Z,9.22
2022-11-29T20:42:29.559Z,9.17
2022-11-29T20:47:40.209Z,9.18
2022-11-29T20:53:00.513Z,9.21
2022-11-29T20:58:02.162Z,9.21
2022-11-29T21:03:03.741Z,9.18
2022-11-29T21:08:05.499Z,9.15
2022-11-29T21:13:07.697Z,9.11
2022-11-29T21:18:20.493Z,9.12
2022-11-29T21:23:39.394Z,9.13
2022-11-29T21:28:55.441Z,9.10
2022-11-29T21:33:57.697Z,9.12
2022-11-29T21:39:03.646Z,9.13
2022-11-29T21:44:08.024Z,9.17
2022-11-29T21:49:09.859Z,9.23
2022-11-29T21:54:11.345Z,9.27
2022-11-29T21:59:12.878Z,9.27
2022-11-29T22:04:14.425Z,9.18
2022-11-29T22:09:16.146Z,9.11
2022-11-29T22:14:20.680Z,9.10
2022-11-29T22:19:29.463Z,9.17
2022-11-29T22:24:34.788Z,9.22
2022-11-29T22:29:36.236Z,9.25
2022-11-29T22:34:37.752Z,9.21
2022-11-29T22:39:39.240Z,9.08
2022-11-29T22:44:40.777Z,8.95
2022-11-29T22:49:44.477Z,8.90
2022-11-29T22:54:46.194Z,8.93
2022-11-29T22:59:47.854Z,8.99
2022-11-29T23:04:49.607Z,9.02
2022-11-29T23:09:51.098Z,8.99
2022-11-29T23:14:56.384Z,8.95
2022-11-29T23:19:58.442Z,8.86
2022-11-29T23:25:00.001Z,8.76
2022-11-29T23:30:01.565Z,8.71
2022-11-29T23:35:03.168Z,8.68
2022-11-29T23:40:05.901Z,8.66
2022-11-29T23:45:07.562Z,8.67
2022-11-29T23:50:10.647Z,8.61
2022-11-29T23:55:14.461Z,8.56
